KONO

Ontario Municipal Airport

Ontario, Oregon, USA
METAR KONO 231053Z AUTO 35003KT 10SM CLR 09/05 A2997 RMK AO2 SLP143 T00890050
Observed Flight Rules
Oct-23 @ 10:53 UTC (56 minutes ago) Visual Flight Rules
Wind Visibility Clouds
350° at 3 knots 10 miles
  • Clear skies
Temperatures Readings
Current 9°C / 48°F
Dewpoint 5°C / 41°F
Humidity 76%
Altimeter 29.97" Hg
Pressure 1014.3 hPa
Elevation 667
METAR KONO 231053Z AUTO 35003KT 10SM CLR 09/05 A2997 RMK AO2 SLP143 T00890050
Observed Flight Rules
Oct-23 @ 10:53 UTC
(56 minutes ago)
VFR
Wind Visibility
350° at 3 knots 10 miles
Clouds
  • Clear skies
Temperature Dewpoint
9°C / 48°F 5°C / 41°F
Humidity Altimeter Pressure
76% 29.97" Hg 1014.3 hPa